createdAt,value
2019-04-18T00:12:01.938Z,13.30
2019-04-18T00:14:48.427Z,13.58
2019-04-18T00:17:01.281Z,12.20
2019-04-18T00:19:30.369Z,12.93
2019-04-18T00:21:59.630Z,9.80
2019-04-18T00:24:28.861Z,12.07
2019-04-18T00:26:57.658Z,13.90
2019-04-18T00:29:27.292Z,10.95
2019-04-18T00:31:56.220Z,10.40
2019-04-18T00:34:25.027Z,10.60
2019-04-18T00:36:53.785Z,11.50
2019-04-18T00:39:22.549Z,14.50
2019-04-18T00:41:53.003Z,9.70
2019-04-18T00:44:23.405Z,10.18
2019-04-18T00:46:52.142Z,8.65
2019-04-18T00:49:21.167Z,10.25
2019-04-18T00:51:49.962Z,9.35
2019-04-18T00:54:18.772Z,12.35
2019-04-18T00:56:47.543Z,11.30
2019-04-18T00:59:16.313Z,10.85
2019-04-18T01:01:46.121Z,9.80
2019-04-18T01:04:26.261Z,12.58
2019-04-18T01:06:45.554Z,8.05
2019-04-18T01:09:14.908Z,11.53
2019-04-18T01:11:44.127Z,10.95
2019-04-18T01:14:16.971Z,10.60
2019-04-18T01:16:43.539Z,7.58
2019-04-18T01:19:12.294Z,11.83
2019-04-18T01:21:41.091Z,15.43
2019-04-18T01:24:10.155Z,10.35
2019-04-18T01:26:38.930Z,10.05
2019-04-18T01:29:07.941Z,12.45
2019-04-18T01:31:36.758Z,10.43
2019-04-18T01:34:07.197Z,8.93
2019-04-18T01:36:36.171Z,13.13
2019-04-18T01:39:14.334Z,11.38
2019-04-18T01:41:41.030Z,11.48
2019-04-18T01:44:27.896Z,8.93
2019-04-18T01:46:57.114Z,15.85
2019-04-18T01:49:26.030Z,9.90
2019-04-18T01:51:55.058Z,19.57
2019-04-18T01:54:23.897Z,9.60
2019-04-18T01:56:55.444Z,12.40
2019-04-18T01:59:23.221Z,12.75
2019-04-18T02:01:54.393Z,11.33
2019-04-18T02:04:22.489Z,16.02
2019-04-18T02:06:51.628Z,18.17
2019-04-18T02:09:20.855Z,21.00
2019-04-18T02:11:50.920Z,17.90
2019-04-18T02:14:22.137Z,12.90
2019-04-18T02:16:50.207Z,10.78
2019-04-18T02:19:19.059Z,14.43
2019-04-18T02:21:47.869Z,9.53
2019-04-18T02:24:16.600Z,11.33
2019-04-18T02:26:45.930Z,11.90
2019-04-18T02:29:15.867Z,13.20
2019-04-18T02:31:44.667Z,13.45
2019-04-18T02:34:15.090Z,10.50
2019-04-18T02:36:44.010Z,9.33
2019-04-18T02:39:12.757Z,12.68
2019-04-18T02:41:43.766Z,11.18
2019-04-18T02:44:12.636Z,15.65
2019-04-18T02:46:45.740Z,13.72
2019-04-18T02:49:13.085Z,12.80
2019-04-18T02:51:41.902Z,18.62
2019-04-18T02:54:13.238Z,16.17
2019-04-18T02:56:53.986Z,18.05
2019-04-18T02:59:29.703Z,14.73
2019-04-18T03:02:08.978Z,12.50
2019-04-18T03:04:39.421Z,15.28
2019-04-18T03:07:08.393Z,26.20
2019-04-18T03:09:37.240Z,15.85
2019-04-18T03:12:06.217Z,12.70
2019-04-18T03:14:34.948Z,17.00
2019-04-18T03:17:03.738Z,10.72
2019-04-18T03:19:32.536Z,11.93
2019-04-18T03:22:01.978Z,14.68
2019-04-18T03:24:30.736Z,16.35
2019-04-18T03:27:01.094Z,16.17
2019-04-18T03:29:30.350Z,16.85
2019-04-18T03:32:01.104Z,16.60
2019-04-18T03:34:29.645Z,13.53
2019-04-18T03:37:03.270Z,17.82
2019-04-18T03:39:31.221Z,13.28
2019-04-18T03:42:01.333Z,12.50
2019-04-18T03:44:37.991Z,14.33
2019-04-18T03:47:08.697Z,14.55
2019-04-18T03:49:40.149Z,12.33
2019-04-18T03:52:08.517Z,15.15
2019-04-18T03:54:39.412Z,18.70
2019-04-18T03:57:08.642Z,13.88
2019-04-18T03:59:37.514Z,15.75
2019-04-18T04:02:06.275Z,15.25
2019-04-18T04:04:35.019Z,15.53
2019-04-18T04:07:04.212Z,17.52
2019-04-18T04:09:33.944Z,16.30
2019-04-18T04:12:04.406Z,17.80
2019-04-18T04:14:33.310Z,15.43
2019-04-18T04:17:02.095Z,14.18
2019-04-18T04:19:30.948Z,15.13
2019-04-18T04:22:00.770Z,14.83
2019-04-18T04:24:31.201Z,17.25
2019-04-18T04:27:00.078Z,20.35
2019-04-18T04:29:33.103Z,17.52
2019-04-18T04:31:59.403Z,15.65
2019-04-18T04:34:28.192Z,15.45
2019-04-18T04:36:57.011Z,14.85
2019-04-18T04:39:26.249Z,14.28
2019-04-18T04:41:55.066Z,21.82
2019-04-18T04:44:27.148Z,18.90
2019-04-18T04:47:32.724Z,17.90
2019-04-18T04:50:05.037Z,17.77
2019-04-18T04:52:32.235Z,16.17
2019-04-18T04:55:01.069Z,17.30
2019-04-18T04:57:31.478Z,17.37
2019-04-18T05:00:01.856Z,21.20
2019-04-18T05:02:30.653Z,17.35
2019-04-18T05:04:59.477Z,21.73
2019-04-18T05:07:28.259Z,14.95
2019-04-18T05:09:57.084Z,16.93
2019-04-18T05:12:27.868Z,18.57
2019-04-18T05:14:56.659Z,17.98
2019-04-18T05:17:25.457Z,20.75
2019-04-18T05:19:54.332Z,16.60
2019-04-18T05:22:23.205Z,19.30
2019-04-18T05:24:52.024Z,17.55
2019-04-18T05:27:21.123Z,21.33
2019-04-18T05:29:49.945Z,22.00
2019-04-18T05:32:19.079Z,22.60
2019-04-18T05:34:50.477Z,24.25
2019-04-18T05:37:18.492Z,22.62
2019-04-18T05:39:47.315Z,18.37
2019-04-18T05:42:18.658Z,24.15
2019-04-18T05:44:46.633Z,21.75
2019-04-18T05:47:22.889Z,25.62
2019-04-18T05:49:53.311Z,21.77
2019-04-18T05:52:26.844Z,16.02
2019-04-18T05:54:55.861Z,19.48
2019-04-18T05:57:24.914Z,20.43
2019-04-18T05:59:55.295Z,19.80
2019-04-18T06:02:41.813Z,22.43
2019-04-18T06:05:23.970Z,18.23
2019-04-18T06:07:55.838Z,18.50
2019-04-18T06:10:25.111Z,20.65
2019-04-18T06:13:00.078Z,20.53
2019-04-18T06:15:47.911Z,15.80
2019-04-18T06:18:27.145Z,20.10
2019-04-18T06:20:59.024Z,21.43
2019-04-18T06:23:27.023Z,21.70
2019-04-18T06:25:57.752Z,19.70
2019-04-18T06:28:40.148Z,17.93
2019-04-18T06:31:16.416Z,16.50
2019-04-18T06:33:52.376Z,23.77
2019-04-18T06:36:23.213Z,16.13
2019-04-18T06:38:51.905Z,18.10
2019-04-18T06:41:21.253Z,18.23
2019-04-18T06:43:49.731Z,18.83
2019-04-18T06:46:22.852Z,20.53
2019-04-18T06:48:48.529Z,17.07
2019-04-18T06:51:17.058Z,16.90
2019-04-18T06:53:46.681Z,17.30
2019-04-18T06:56:17.813Z,17.77
2019-04-18T06:58:49.591Z,18.10
2019-04-18T07:01:16.104Z,17.60
2019-04-18T07:03:44.737Z,18.83
2019-04-18T07:06:13.991Z,18.90
2019-04-18T07:08:47.155Z,20.50
2019-04-18T07:11:26.127Z,18.60
2019-04-18T07:13:57.176Z,18.70
2019-04-18T07:16:25.883Z,14.13
2019-04-18T07:18:54.466Z,19.13
2019-04-18T07:21:26.473Z,17.53
2019-04-18T07:23:54.866Z,18.40
2019-04-18T07:26:23.389Z,16.20
2019-04-18T07:28:55.018Z,18.97
2019-04-18T07:31:26.037Z,15.73
2019-04-18T07:33:52.781Z,18.70
2019-04-18T07:36:21.301Z,18.23
2019-04-18T07:38:49.808Z,17.43
2019-04-18T07:41:20.738Z,20.97
2019-04-18T07:43:48.485Z,17.53
2019-04-18T07:46:18.716Z,17.13
2019-04-18T07:48:47.327Z,18.83
2019-04-18T07:51:15.881Z,17.60
2019-04-18T07:53:44.766Z,30.23
2019-04-18T07:56:14.090Z,14.53
2019-04-18T07:58:42.896Z,14.87
2019-04-18T08:01:12.990Z,20.20
2019-04-18T08:03:45.438Z,16.37
2019-04-18T08:06:18.642Z,15.20
2019-04-18T08:08:42.104Z,16.20
2019-04-18T08:11:10.933Z,15.80
2019-04-18T08:13:39.529Z,17.93
2019-04-18T08:16:08.732Z,21.43
2019-04-18T08:18:37.416Z,16.40
2019-04-18T08:21:06.894Z,16.03
2019-04-18T08:23:39.666Z,19.40
2019-04-18T08:26:06.225Z,19.80
2019-04-18T08:28:34.921Z,14.73
2019-04-18T08:31:03.386Z,11.80
2019-04-18T08:33:31.908Z,14.87
2019-04-18T08:36:05.728Z,15.67
2019-04-18T08:38:42.817Z,14.30
2019-04-18T08:41:21.538Z,16.40
2019-04-18T08:44:03.670Z,14.23
2019-04-18T08:46:39.655Z,17.80
2019-04-18T08:49:13.194Z,12.80
2019-04-18T08:51:43.555Z,11.97
2019-04-18T08:54:16.605Z,14.80
2019-04-18T08:56:49.711Z,17.53
2019-04-18T08:59:38.721Z,13.90
2019-04-18T09:02:08.586Z,19.33
2019-04-18T09:04:37.814Z,14.60
2019-04-18T09:07:07.302Z,15.50
2019-04-18T09:09:36.922Z,15.43
2019-04-18T09:12:07.213Z,15.00
2019-04-18T09:14:37.996Z,15.83
2019-04-18T09:17:06.710Z,18.53
2019-04-18T09:19:35.742Z,15.50
2019-04-18T09:22:05.040Z,12.73
2019-04-18T09:24:33.820Z,10.70
2019-04-18T09:27:03.441Z,13.40
2019-04-18T09:29:32.126Z,14.33
2019-04-18T09:32:00.587Z,12.20
2019-04-18T09:34:29.506Z,14.97
2019-04-18T09:37:02.004Z,15.53
2019-04-18T09:39:29.437Z,14.00
2019-04-18T09:41:57.922Z,19.77
2019-04-18T09:44:26.405Z,13.80
2019-04-18T09:46:54.976Z,10.10
2019-04-18T09:49:23.508Z,13.10
2019-04-18T09:51:55.241Z,15.33
2019-04-18T09:54:22.248Z,10.13
2019-04-18T09:56:50.747Z,12.57
2019-04-18T09:59:19.323Z,12.50
2019-04-18T10:01:50.341Z,10.10
2019-04-18T10:04:18.103Z,16.73
2019-04-18T10:06:46.598Z,9.93
2019-04-18T10:09:15.073Z,8.60
2019-04-18T10:11:43.550Z,9.80
2019-04-18T10:14:12.022Z,10.30
2019-04-18T10:16:40.835Z,13.00
2019-04-18T10:19:09.411Z,8.77
2019-04-18T10:21:39.595Z,11.50
2019-04-18T10:24:08.797Z,10.90
2019-04-18T10:26:41.751Z,11.13
2019-04-18T10:29:10.294Z,8.07
2019-04-18T10:31:41.323Z,9.47
2019-04-18T10:34:15.104Z,7.70
2019-04-18T10:36:40.178Z,11.87
2019-04-18T10:39:10.212Z,7.00
2019-04-18T10:41:38.897Z,9.40
2019-04-18T10:44:07.404Z,8.33
2019-04-18T10:46:35.986Z,8.60
2019-04-18T10:49:05.316Z,8.53
2019-04-18T10:51:33.930Z,7.67
2019-04-18T10:54:02.482Z,10.00
2019-04-18T10:56:31.040Z,10.77
2019-04-18T10:58:59.536Z,8.00
2019-04-18T11:01:28.057Z,8.50
2019-04-18T11:03:56.591Z,9.80
2019-04-18T11:06:25.114Z,11.73
2019-04-18T11:08:53.686Z,9.53
2019-04-18T11:11:22.285Z,14.80
2019-04-18T11:13:50.823Z,8.50
2019-04-18T11:16:19.871Z,8.33
2019-04-18T11:18:48.516Z,8.93
2019-04-18T11:21:17.083Z,9.80
2019-04-18T11:23:45.673Z,10.23
2019-04-18T11:26:14.590Z,9.63
2019-04-18T11:28:43.188Z,10.07
2019-04-18T11:31:11.857Z,8.63
2019-04-18T11:33:40.397Z,8.63
2019-04-18T11:36:08.976Z,8.63
2019-04-18T11:38:37.511Z,6.93
2019-04-18T11:41:06.761Z,6.53
2019-04-18T11:43:35.355Z,6.70
2019-04-18T11:46:04.091Z,7.17
2019-04-18T11:48:32.548Z,9.50
2019-04-18T11:51:01.102Z,11.67
2019-04-18T11:53:29.598Z,9.20
2019-04-18T11:55:59.458Z,9.13
2019-04-18T11:58:28.425Z,8.47
2019-04-18T12:01:21.044Z,8.33
2019-04-18T12:03:54.370Z,10.67
2019-04-18T12:06:23.998Z,10.07
2019-04-18T12:08:52.799Z,7.20
2019-04-18T12:11:21.342Z,7.00
2019-04-18T12:13:49.925Z,8.43
2019-04-18T12:16:18.455Z,6.13
2019-04-18T12:18:46.962Z,7.70
2019-04-18T12:21:15.497Z,9.90
2019-04-18T12:23:44.001Z,10.40
2019-04-18T12:26:12.470Z,8.07
2019-04-18T12:28:40.926Z,7.43
2019-04-18T12:31:12.261Z,7.33
2019-04-18T12:33:40.883Z,7.80
2019-04-18T12:36:10.318Z,7.77
2019-04-18T12:38:39.641Z,10.90
2019-04-18T12:41:12.179Z,11.80
2019-04-18T12:43:38.753Z,8.37
2019-04-18T12:46:07.235Z,9.47
2019-04-18T12:48:35.727Z,20.87
2019-04-18T12:51:04.417Z,8.53
2019-04-18T12:53:32.984Z,8.07
2019-04-18T12:56:01.524Z,7.07
2019-04-18T12:58:30.133Z,7.90
2019-04-18T13:00:58.837Z,6.40
2019-04-18T13:03:28.169Z,7.67
2019-04-18T13:05:57.984Z,5.87
2019-04-18T13:08:34.026Z,6.23
2019-04-18T13:11:06.626Z,6.57
2019-04-18T13:13:48.762Z,8.33
2019-04-18T13:16:24.814Z,7.00
2019-04-18T13:18:53.393Z,9.90
2019-04-18T13:21:21.980Z,6.80
2019-04-18T13:23:50.454Z,11.70
2019-04-18T13:26:18.944Z,12.13
2019-04-18T13:28:47.425Z,6.57
2019-04-18T13:31:16.126Z,8.40
2019-04-18T13:33:44.712Z,6.70
2019-04-18T13:36:13.262Z,8.70
2019-04-18T13:38:41.817Z,11.07
2019-04-18T13:41:10.937Z,9.80
2019-04-18T13:43:40.090Z,7.50
2019-04-18T13:46:11.148Z,9.83
2019-04-18T13:48:38.895Z,6.73
2019-04-18T13:51:07.890Z,7.60
2019-04-18T13:53:36.456Z,6.70
2019-04-18T13:56:05.156Z,11.13
2019-04-18T13:58:34.082Z,9.20
2019-04-18T14:01:02.968Z,7.50
2019-04-18T14:03:31.866Z,9.93
2019-04-18T14:06:00.669Z,11.23
2019-04-18T14:08:29.531Z,9.63
2019-04-18T14:10:58.046Z,9.17
2019-04-18T14:13:29.189Z,8.80
2019-04-18T14:15:58.051Z,10.47
2019-04-18T14:18:30.889Z,8.90
2019-04-18T14:20:57.661Z,8.23
2019-04-18T14:23:26.161Z,16.23
2019-04-18T14:25:54.726Z,12.73
2019-04-18T14:28:23.354Z,7.13
2019-04-18T14:30:51.947Z,8.63
2019-04-18T14:33:20.433Z,7.60
2019-04-18T14:35:48.902Z,7.00
2019-04-18T14:38:17.456Z,8.13
2019-04-18T14:40:46.093Z,10.23
2019-04-18T14:43:16.083Z,8.40
2019-04-18T14:45:44.829Z,8.87
2019-04-18T14:48:17.977Z,9.53
2019-04-18T14:50:43.746Z,8.97
2019-04-18T14:53:12.282Z,8.00
2019-04-18T14:55:41.044Z,10.30
2019-04-18T14:58:09.536Z,8.33
2019-04-18T15:00:43.399Z,8.20
2019-04-18T15:03:09.050Z,9.00
2019-04-18T15:05:38.274Z,8.27
2019-04-18T15:08:07.077Z,8.97
2019-04-18T15:10:36.981Z,10.33
2019-04-18T15:13:06.016Z,9.00
2019-04-18T15:15:34.657Z,9.20
2019-04-18T15:18:03.216Z,9.33
2019-04-18T15:20:33.155Z,11.40
2019-04-18T15:23:02.099Z,9.60
2019-04-18T15:25:31.191Z,9.47
2019-04-18T15:27:59.743Z,11.63
2019-04-18T15:30:28.351Z,10.60
2019-04-18T15:33:06.335Z,10.53
2019-04-18T15:35:27.156Z,9.00
2019-04-18T15:37:55.658Z,10.10
2019-04-18T15:40:27.806Z,10.57
2019-04-18T15:42:57.427Z,9.83
2019-04-18T15:45:30.467Z,10.00
2019-04-18T15:47:59.376Z,11.37
2019-04-18T15:50:28.193Z,12.20
2019-04-18T15:52:59.088Z,8.60
2019-04-18T15:55:26.933Z,10.87
2019-04-18T15:57:55.418Z,11.20
2019-04-18T16:00:29.673Z,11.93
2019-04-18T16:02:58.345Z,15.93
2019-04-18T16:05:30.247Z,13.93
2019-04-18T16:07:59.556Z,9.27
2019-04-18T16:10:28.521Z,10.40
2019-04-18T16:12:57.181Z,12.77
2019-04-18T16:15:27.210Z,11.43
2019-04-18T16:17:55.996Z,10.97
2019-04-18T16:20:27.356Z,10.50
2019-04-18T16:22:56.498Z,10.37
2019-04-18T16:25:25.224Z,9.70
2019-04-18T16:27:53.877Z,9.67
2019-04-18T16:30:27.198Z,10.57
2019-04-18T16:32:56.381Z,11.70
2019-04-18T16:35:25.790Z,11.37
2019-04-18T16:37:54.498Z,11.77
2019-04-18T16:40:23.447Z,13.60
2019-04-18T16:42:51.930Z,10.60
2019-04-18T16:45:20.521Z,12.20
2019-04-18T16:47:49.813Z,11.07
2019-04-18T16:50:21.227Z,10.50
2019-04-18T16:52:49.726Z,11.13
2019-04-18T16:55:18.498Z,11.10
2019-04-18T16:57:47.048Z,11.50
2019-04-18T17:00:24.104Z,10.00
2019-04-18T17:02:52.734Z,12.10
2019-04-18T17:05:21.745Z,12.03
2019-04-18T17:07:50.396Z,13.43
2019-04-18T17:10:18.959Z,10.53
2019-04-18T17:12:47.432Z,13.70
2019-04-18T17:15:16.274Z,14.97
2019-04-18T17:17:44.742Z,10.20
2019-04-18T17:20:15.170Z,11.87
2019-04-18T17:22:45.148Z,12.20
2019-04-18T17:27:38.324Z,12.00
2019-04-18T17:30:07.701Z,14.43
2019-04-18T17:32:39.096Z,10.30
2019-04-18T17:35:17.053Z,10.33
2019-04-18T17:37:59.453Z,10.53
2019-04-18T17:40:21.041Z,14.27
2019-04-18T17:42:39.205Z,11.83
2019-04-18T17:45:10.669Z,10.83
2019-04-18T17:47:38.163Z,10.67
2019-04-18T17:50:10.317Z,9.63
2019-04-18T17:52:46.740Z,13.43
2019-04-18T17:55:31.112Z,11.87
2019-04-18T17:57:45.193Z,14.70
2019-04-18T18:00:16.868Z,13.17
2019-04-18T18:02:45.343Z,11.73
2019-04-18T18:05:20.533Z,10.80
2019-04-18T18:07:45.205Z,14.37
2019-04-18T18:10:19.137Z,10.40
2019-04-18T18:13:06.983Z,9.13
2019-04-18T18:15:55.389Z,10.53
2019-04-18T18:18:44.748Z,13.97
2019-04-18T18:21:40.876Z,14.13
2019-04-18T18:24:22.219Z,11.93
2019-04-18T18:27:09.722Z,12.53
2019-04-18T18:29:57.248Z,11.80
2019-04-18T18:32:46.800Z,14.10
2019-04-18T18:35:43.515Z,12.87
2019-04-18T19:32:04.120Z,15.03
2019-04-18T19:38:13.396Z,19.37
2019-04-18T19:46:45.053Z,17.73
2019-04-18T19:49:25.916Z,19.40
2019-04-18T21:21:58.746Z,19.42
2019-04-18T23:27:28.307Z,15.53
